Time;durP1;ratioP1;P1;durP2;ratioP2;P2;SDS_P1;SDS_P2;PMS_P1;PMS_P2;Temp;Humidity;BMP_temperature;BMP_pressure;BME280_temperature;BME280_humidity;BME280_pressure;Samples;Min_cycle;Max_cycle;Signal;HPM_P1;HPM_P2
2022/05/15 00:00:58;;;;;;;6.43;3.83;;;22.60;45.00;24.30;101174.00;;;;5050032;28;20681;-52
2022/05/15 00:03:24;;;;;;;4.40;3.13;;;22.70;45.10;24.30;101172.00;;;;5062046;28;20171;-47
2022/05/15 00:05:56;;;;;;;6.53;3.43;;;22.60;45.00;24.20;101180.00;;;;5060649;28;20178;-49
2022/05/15 00:08:22;;;;;;;7.03;3.60;;;22.60;45.00;24.20;101166.00;;;;5049013;28;20186;-48
2022/05/15 00:10:48;;;;;;;6.97;3.73;;;22.50;45.00;24.20;101167.00;;;;5046844;28;20173;-47
2022/05/15 00:13:13;;;;;;;4.83;3.40;;;22.50;45.00;24.20;101169.00;;;;5046938;28;20209;-48
2022/05/15 00:15:39;;;;;;;5.67;3.50;;;22.50;45.10;24.20;101163.00;;;;5045693;28;20197;-48
2022/05/15 00:18:05;;;;;;;5.07;3.43;;;22.50;45.00;24.10;101168.00;;;;5045868;28;20697;-46
2022/05/15 00:20:31;;;;;;;5.13;3.57;;;22.50;45.10;24.10;101164.00;;;;5046083;28;20297;-46
2022/05/15 00:22:57;;;;;;;6.60;3.70;;;22.50;45.20;24.10;101170.00;;;;5047110;28;20245;-48
2022/05/15 00:25:23;;;;;;;6.33;3.63;;;22.50;45.10;24.10;101169.00;;;;5047097;28;20277;-48
2022/05/15 00:27:48;;;;;;;6.93;3.53;;;22.50;45.10;24.10;101164.00;;;;5046243;28;20910;-48
2022/05/15 00:30:16;;;;;;;6.03;3.73;;;22.40;45.10;24.10;101169.00;;;;5046795;28;20670;-46
2022/05/15 00:32:41;;;;;;;5.17;3.50;;;22.40;45.30;24.00;101163.00;;;;5029039;28;20170;-48
2022/05/15 00:35:08;;;;;;;6.03;3.47;;;22.40;45.00;24.00;101164.00;;;;5046341;28;20158;-46
2022/05/15 00:37:33;;;;;;;5.67;3.40;;;22.40;45.30;24.00;101160.00;;;;5046338;28;20178;-48
2022/05/15 00:39:59;;;;;;;6.93;3.50;;;22.50;45.30;24.00;101162.00;;;;5046662;28;20166;-47
2022/05/15 00:42:25;;;;;;;4.90;3.50;;;22.40;45.10;23.90;101145.00;;;;5046591;28;20202;-48
2022/05/15 00:44:51;;;;;;;5.57;3.43;;;22.30;45.10;23.90;101152.00;;;;5046500;28;20194;-47
2022/05/15 00:47:17;;;;;;;5.53;3.63;;;22.30;45.40;23.90;101152.00;;;;5045807;28;20193;-46
2022/05/15 00:49:43;;;;;;;7.73;3.67;;;22.20;45.40;23.90;101156.00;;;;5045453;28;20694;-48
2022/05/15 00:52:12;;;;;;;6.40;3.90;;;22.20;45.30;23.90;101153.00;;;;5029081;28;20205;-48
2022/05/15 00:54:51;;;;;;;6.70;3.60;;;22.30;45.40;23.90;101137.00;;;;5008873;28;20178;-48
2022/05/15 00:57:21;;;;;;;5.47;3.50;;;22.30;45.40;23.80;101149.00;;;;5008806;28;20642;-48
2022/05/15 01:00:01;;;;;;;6.97;3.70;;;22.30;45.40;23.80;101156.00;;;;5008492;28;20171;-47
2022/05/15 01:02:29;;;;;;;5.43;4.10;;;22.30;45.50;23.80;101161.00;;;;5008621;28;20178;-48
2022/05/15 01:04:55;;;;;;;6.87;4.40;;;22.30;45.60;23.80;101166.00;;;;4992160;28;20182;-48
2022/05/15 01:07:20;;;;;;;7.43;3.90;;;22.30;45.40;23.80;101166.00;;;;5026108;28;20167;-48
2022/05/15 01:09:46;;;;;;;4.93;4.17;;;22.30;45.70;23.70;101164.00;;;;5029027;28;20171;-48
2022/05/15 01:12:12;;;;;;;6.23;4.23;;;22.30;46.00;23.70;101169.00;;;;5028135;28;20171;-46
2022/05/15 01:14:41;;;;;;;6.13;4.43;;;22.30;45.70;23.70;101164.00;;;;5027897;28;20584;-49
2022/05/15 01:17:06;;;;;;;7.13;4.70;;;22.30;45.80;23.70;101168.00;;;;5028441;28;20240;-48
2022/05/15 01:19:37;;;;;;;7.90;4.40;;;22.20;45.60;23.70;101164.00;;;;5029226;28;20815;-50
2022/05/15 01:22:04;;;;;;;5.93;4.13;;;22.20;45.80;23.70;101160.00;;;;5027796;28;20746;-47
2022/05/15 01:24:29;;;;;;;6.83;4.53;;;22.20;45.70;23.60;101169.00;;;;5029382;28;20229;-47
2022/05/15 01:26:55;;;;;;;7.03;4.20;;;22.20;46.10;23.60;101164.00;;;;5028970;28;20532;-47
2022/05/15 01:29:34;;;;;;;4.30;3.90;;;22.20;46.10;23.60;101168.00;;;;5011079;28;20830;-48
2022/05/15 01:32:00;;;;;;;4.87;3.97;;;22.20;46.20;23.60;101170.00;;;;5027572;28;20175;-47
2022/05/15 01:34:26;;;;;;;5.63;4.10;;;22.20;46.40;23.60;101176.00;;;;5028730;28;20313;-47
2022/05/15 01:36:52;;;;;;;5.10;3.93;;;22.20;46.30;23.50;101174.00;;;;5028622;28;20275;-47
2022/05/15 01:39:18;;;;;;;5.10;4.30;;;22.20;46.90;23.50;101165.00;;;;5028812;28;20191;-48
2022/05/15 01:41:44;;;;;;;6.93;4.20;;;22.20;46.40;23.50;101164.00;;;;5027160;28;20732;-48
2022/05/15 01:44:09;;;;;;;5.93;3.97;;;22.20;46.50;23.50;101107.00;;;;5029084;28;20173;-48
2022/05/15 01:46:35;;;;;;;5.50;4.23;;;22.20;46.50;23.50;101167.00;;;;5028760;28;20256;-48
2022/05/15 01:49:03;;;;;;;5.43;4.10;;;22.20;46.40;23.50;101174.00;;;;5027252;28;20186;-49
2022/05/15 01:51:28;;;;;;;5.10;4.07;;;22.20;46.40;23.50;101172.00;;;;5037378;28;20178;-47
2022/05/15 01:53:54;;;;;;;5.47;4.30;;;22.10;46.50;23.50;101164.00;;;;5048296;28;20174;-47
2022/05/15 01:56:20;;;;;;;5.07;3.97;;;22.10;46.70;23.40;101172.00;;;;5048313;28;20174;-47
2022/05/15 01:58:46;;;;;;;4.57;3.93;;;22.10;46.50;23.40;101176.00;;;;5048169;28;20218;-47
2022/05/15 02:01:11;;;;;;;6.17;4.30;;;22.10;46.70;23.40;101168.00;;;;5048503;28;20286;-48
2022/05/15 02:03:37;;;;;;;5.77;4.17;;;22.10;46.70;23.40;101170.00;;;;5048275;28;20835;-48
2022/05/15 02:06:03;;;;;;;4.97;4.10;;;22.10;46.80;23.20;101166.00;;;;5047960;28;20285;-47
2022/05/15 02:08:33;;;;;;;5.23;3.93;;;22.10;46.80;23.40;101164.00;;;;5046605;28;20244;-47
2022/05/15 02:10:59;;;;;;;5.17;4.20;;;22.10;46.80;23.40;101169.00;;;;5047596;28;20167;-46
2022/05/15 02:13:25;;;;;;;4.50;4.10;;;22.00;46.80;23.30;101116.00;;;;5049410;28;20180;-47
2022/05/15 02:15:51;;;;;;;5.40;4.00;;;22.00;46.90;23.30;101176.00;;;;5048342;28;20178;-46
2022/05/15 02:18:17;;;;;;;5.07;4.20;;;22.00;46.80;23.30;101181.00;;;;5047219;28;20278;-48
2022/05/15 02:20:42;;;;;;;5.37;4.10;;;22.00;46.80;23.30;101174.00;;;;5047738;28;20706;-47
2022/05/15 02:23:08;;;;;;;4.63;4.10;;;22.00;46.90;23.30;101177.00;;;;5047881;28;20175;-48
2022/05/15 02:25:34;;;;;;;5.03;3.93;;;21.90;46.90;23.30;101181.00;;;;5047998;28;20246;-47
2022/05/15 02:28:00;;;;;;;4.93;4.13;;;21.90;46.80;23.00;101180.00;;;;5047344;28;20601;-46
2022/05/15 02:30:26;;;;;;;6.63;4.40;;;21.90;46.80;23.20;101178.00;;;;5047874;28;20169;-48
2022/05/15 02:32:52;;;;;;;5.53;3.93;;;21.90;46.80;23.20;101176.00;;;;5047406;28;20162;-48
2022/05/15 02:35:17;;;;;;;5.47;4.03;;;21.80;46.90;23.20;101170.00;;;;5047618;28;20232;-47
2022/05/15 02:37:44;;;;;;;4.47;3.67;;;21.80;47.00;23.20;101169.00;;;;5047335;28;20182;-47
2022/05/15 02:40:11;;;;;;;4.67;4.00;;;21.80;47.20;23.10;101177.00;;;;5047283;28;20169;-47
2022/05/15 02:42:37;;;;;;;4.50;4.10;;;21.80;47.10;23.10;101178.00;;;;5047124;28;20678;-48
2022/05/15 02:45:04;;;;;;;5.10;4.20;;;21.80;47.30;23.10;101176.00;;;;5047125;28;20170;-47
2022/05/15 02:47:30;;;;;;;6.23;4.50;;;21.80;47.30;23.10;101182.00;;;;5045766;28;20220;-47
2022/05/15 02:52:39;;;;;;;5.73;4.13;;;21.80;47.30;23.00;101193.00;;;;5027131;28;20200;-47
2022/05/15 02:55:06;;;;;;;4.93;4.20;;;21.80;47.40;23.00;101179.00;;;;5027337;28;20174;-47
2022/05/15 02:57:31;;;;;;;5.20;4.33;;;21.70;47.40;23.00;101177.00;;;;5026676;28;20206;-48
2022/05/15 02:59:57;;;;;;;6.23;4.00;;;21.70;47.30;23.00;101174.00;;;;5026911;28;20175;-46
2022/05/15 03:02:23;;;;;;;5.07;4.10;;;21.70;47.20;23.00;101174.00;;;;5027149;28;20813;-49
2022/05/15 03:04:49;;;;;;;6.73;3.97;;;21.70;47.20;22.90;101170.00;;;;5031090;28;20169;-47
2022/05/15 03:07:15;;;;;;;6.07;4.10;;;21.70;47.20;22.90;101178.00;;;;5047640;28;20227;-47
2022/05/15 03:09:41;;;;;;;6.50;4.33;;;21.60;47.10;22.90;101182.00;;;;5046351;28;20166;-48
2022/05/15 03:12:07;;;;;;;4.47;3.97;;;21.70;47.20;22.90;101183.00;;;;5027130;28;20202;-49
2022/05/15 03:14:33;;;;;;;5.13;3.80;;;21.60;47.10;22.90;101175.00;;;;5027029;28;20187;-48
2022/05/15 03:16:58;;;;;;;5.27;3.90;;;21.60;47.00;22.90;101185.00;;;;5026731;28;20663;-47
2022/05/15 03:19:24;;;;;;;7.30;4.23;;;21.60;46.80;22.80;101178.00;;;;5026410;28;20199;-48
2022/05/15 03:21:50;;;;;;;7.87;5.20;;;21.60;46.80;22.80;101187.00;;;;5026568;28;20210;-47
2022/05/15 03:24:16;;;;;;;8.50;6.27;;;21.50;46.70;22.80;101170.00;;;;5023838;28;20198;-48
2022/05/15 03:26:45;;;;;;;6.33;5.57;;;21.50;46.80;22.80;101169.00;;;;5007029;28;20175;-48
2022/05/15 03:29:11;;;;;;;6.93;5.33;;;21.50;46.80;22.80;101165.00;;;;5006833;28;20195;-48
2022/05/15 03:31:39;;;;;;;5.03;4.40;;;21.50;46.90;22.70;101184.00;;;;5023710;28;20516;-48
2022/05/15 03:34:06;;;;;;;6.30;4.40;;;21.50;46.80;22.70;101183.00;;;;5026167;28;20225;-49
2022/05/15 03:36:32;;;;;;;6.57;4.33;;;21.50;46.90;22.70;101169.00;;;;5012753;28;20211;-49
2022/05/15 03:38:57;;;;;;;6.23;3.87;;;21.40;46.80;22.70;101168.00;;;;5006247;28;20667;-48
2022/05/15 03:41:23;;;;;;;4.53;4.13;;;21.40;46.80;22.70;101167.00;;;;5006831;28;20243;-48
2022/05/15 03:43:49;;;;;;;6.53;4.70;;;21.40;46.90;22.60;101160.00;;;;5006263;28;20252;-48
2022/05/15 03:46:14;;;;;;;4.70;4.20;;;21.40;46.90;22.60;101161.00;;;;5006837;28;20296;-48
2022/05/15 03:48:40;;;;;;;6.03;4.50;;;21.40;46.90;22.60;101168.00;;;;5006353;28;20693;-48
2022/05/15 03:51:06;;;;;;;5.87;4.63;;;21.30;46.90;22.40;101159.00;;;;5020473;28;20178;-46
2022/05/15 03:53:32;;;;;;;6.17;4.80;;;21.30;46.90;22.60;101158.00;;;;5045967;28;20462;-48
2022/05/15 03:55:58;;;;;;;4.73;4.27;;;21.30;46.90;22.50;101092.00;;;;5046203;28;20226;-48
2022/05/15 03:58:30;;;;;;;5.30;4.40;;;21.30;46.90;22.50;101156.00;;;;5045488;28;20208;-48
2022/05/15 04:00:55;;;;;;;5.57;4.03;;;21.30;46.90;22.50;101147.00;;;;5047967;28;20591;-48
2022/05/15 04:03:21;;;;;;;6.47;4.63;;;21.20;46.80;22.50;101154.00;;;;5047045;28;20166;-49
2022/05/15 04:05:48;;;;;;;4.93;4.43;;;21.20;46.80;22.50;101144.00;;;;5046497;28;20200;-49
2022/05/15 04:08:13;;;;;;;5.93;4.40;;;21.20;46.80;22.40;101146.00;;;;5046664;28;20246;-48
2022/05/15 04:10:39;;;;;;;5.00;4.00;;;21.20;46.80;22.40;101164.00;;;;5046555;28;20637;-48
2022/05/15 04:13:05;;;;;;;6.33;4.43;;;21.20;46.80;22.40;101156.00;;;;5045957;28;20181;-48
2022/05/15 04:15:31;;;;;;;4.67;3.70;;;21.10;46.70;22.40;101151.00;;;;5044761;28;20181;-48
2022/05/15 04:17:57;;;;;;;7.93;4.37;;;21.10;47.00;22.40;101148.00;;;;5045362;28;20702;-47
2022/05/15 04:20:24;;;;;;;4.93;4.10;;;21.10;47.10;22.30;101140.00;;;;5045629;28;20180;-47
2022/05/15 04:22:50;;;;;;;5.40;4.20;;;21.00;47.20;22.30;101143.00;;;;5045760;28;20158;-48
2022/05/15 04:25:17;;;;;;;5.53;4.23;;;21.10;47.10;22.30;101139.00;;;;5046078;28;20622;-47
2022/05/15 04:27:42;;;;;;;5.93;4.30;;;21.10;47.10;22.30;101137.00;;;;5045843;28;20191;-46
2022/05/15 04:30:11;;;;;;;4.80;3.90;;;21.00;47.00;22.30;101143.00;;;;5052931;28;20275;-48
2022/05/15 04:32:37;;;;;;;7.30;4.00;;;21.00;47.10;22.20;101139.00;;;;5062746;28;20546;-49
2022/05/15 04:35:03;;;;;;;5.40;3.70;;;21.00;47.10;22.20;101136.00;;;;5045531;28;20179;-47
2022/05/15 04:37:28;;;;;;;4.63;3.70;;;21.00;47.20;22.20;101143.00;;;;5045933;28;20159;-47
2022/05/15 04:39:54;;;;;;;5.77;4.10;;;21.00;47.30;22.20;101155.00;;;;5045600;28;20181;-47
2022/05/15 04:42:20;;;;;;;6.47;3.97;;;20.90;47.30;22.20;101150.00;;;;5046262;28;20250;-49
2022/05/15 04:44:46;;;;;;;4.67;3.97;;;20.90;47.40;22.20;101153.00;;;;5049755;28;20838;-49
2022/05/15 04:47:12;;;;;;;4.47;3.70;;;20.90;47.60;22.10;101161.00;;;;5027206;28;20181;-48
2022/05/15 04:49:38;;;;;;;5.93;4.00;;;20.90;47.70;22.10;101157.00;;;;5013680;28;20225;-47
2022/05/15 04:52:04;;;;;;;6.17;3.87;;;20.80;47.50;22.10;101161.00;;;;5039424;28;20202;-49
2022/05/15 04:54:30;;;;;;;4.13;3.40;;;20.90;47.50;22.10;101169.00;;;;5049369;28;20271;-47
2022/05/15 04:56:56;;;;;;;4.33;3.53;;;20.80;47.60;22.10;101171.00;;;;5047684;28;20247;-47
2022/05/15 04:59:21;;;;;;;4.20;3.80;;;20.80;47.50;22.00;101167.00;;;;5048589;28;20197;-47
2022/05/15 05:01:47;;;;;;;5.23;3.70;;;20.80;47.50;22.00;101168.00;;;;5049159;28;20571;-48
2022/05/15 05:04:13;;;;;;;4.70;3.80;;;20.80;47.80;22.00;101180.00;;;;5049483;28;20574;-48
2022/05/15 05:06:38;;;;;;;4.73;3.87;;;20.70;47.50;22.00;101184.00;;;;5049378;28;20173;-47
2022/05/15 05:09:04;;;;;;;4.10;3.70;;;20.70;47.50;22.00;101164.00;;;;5057666;28;20206;-49
2022/05/15 05:11:30;;;;;;;4.57;4.10;;;20.70;47.40;22.00;101170.00;;;;5067054;28;20713;-47
2022/05/15 05:13:55;;;;;;;4.67;4.00;;;20.70;47.50;21.90;101171.00;;;;5058206;28;20185;-48
2022/05/15 05:16:21;;;;;;;5.33;3.97;;;20.70;47.50;21.90;101171.00;;;;5049043;28;20191;-48
2022/05/15 05:18:48;;;;;;;4.50;3.87;;;20.70;47.60;21.90;101172.00;;;;5048230;28;20212;-46
2022/05/15 05:21:14;;;;;;;5.20;3.67;;;20.70;47.80;21.90;101175.00;;;;5047057;28;20246;-46
2022/05/15 05:23:39;;;;;;;3.90;3.50;;;20.70;47.70;21.90;101140.00;;;;5048863;28;20615;-47
2022/05/15 05:26:05;;;;;;;4.93;3.70;;;20.70;47.80;21.80;101170.00;;;;5048792;28;20168;-47
2022/05/15 05:28:31;;;;;;;5.00;3.50;;;20.70;48.20;21.80;101174.00;;;;5048694;28;20219;-48
2022/05/15 05:30:57;;;;;;;6.10;3.80;;;20.60;48.20;21.80;101171.00;;;;5048022;28;20171;-47
2022/05/15 05:33:23;;;;;;;4.53;4.10;;;20.60;48.30;21.80;101175.00;;;;5048870;28;20199;-48
2022/05/15 05:35:49;;;;;;;4.13;3.73;;;20.60;48.30;21.80;101174.00;;;;5048544;28;20189;-48
2022/05/15 05:38:14;;;;;;;5.13;4.10;;;20.60;48.30;21.80;101187.00;;;;5047151;28;20288;-48
2022/05/15 05:40:40;;;;;;;5.27;3.80;;;20.60;48.30;21.70;101182.00;;;;5048292;28;20265;-46
2022/05/15 05:43:06;;;;;;;4.23;3.73;;;20.60;49.10;21.70;101190.00;;;;5050139;28;20343;-47
2022/05/15 05:45:32;;;;;;;5.03;3.87;;;20.60;48.50;21.70;101184.00;;;;5049615;28;20171;-47
2022/05/15 05:47:57;;;;;;;3.93;3.60;;;20.60;48.50;21.70;101179.00;;;;5063570;28;20197;-50
2022/05/15 05:50:25;;;;;;;4.40;3.73;;;20.50;48.40;21.70;101180.00;;;;5070192;28;20178;-48
2022/05/15 05:52:50;;;;;;;3.93;3.60;;;20.60;48.70;21.70;101177.00;;;;5048711;28;20663;-48
2022/05/15 05:55:17;;;;;;;4.90;3.70;;;20.60;48.70;21.70;101175.00;;;;5046742;28;20173;-48
2022/05/15 05:57:43;;;;;;;6.00;3.93;;;20.60;48.70;21.70;101177.00;;;;5040132;28;20222;-47
2022/05/15 06:00:14;;;;;;;5.37;3.93;;;20.60;48.80;21.60;101175.00;;;;5031021;28;20175;-47
2022/05/15 06:02:39;;;;;;;6.90;4.17;;;20.60;49.10;21.60;101183.00;;;;5028988;28;20249;-46
2022/05/15 06:05:05;;;;;;;4.70;3.60;;;20.50;49.10;21.60;101190.00;;;;5028066;28;20183;-48
2022/05/15 06:07:33;;;;;;;4.83;3.80;;;20.50;49.10;21.60;101174.00;;;;5026411;28;20188;-47
2022/05/15 06:09:59;;;;;;;4.63;3.70;;;20.50;49.50;21.60;101189.00;;;;5027963;28;20172;-47
2022/05/15 06:12:25;;;;;;;4.40;3.93;;;20.50;49.50;21.60;101188.00;;;;5028047;28;20176;-47
2022/05/15 06:14:51;;;;;;;5.00;3.80;;;20.50;49.40;21.50;101183.00;;;;5027388;28;20167;-48
2022/05/15 06:17:25;;;;;;;4.80;3.77;;;20.50;49.50;21.50;101181.00;;;;5027311;28;20862;-48
2022/05/15 06:19:50;;;;;;;4.70;3.40;;;20.50;49.40;21.50;101182.00;;;;5026385;28;20209;-48
2022/05/15 06:22:16;;;;;;;4.10;3.67;;;20.50;49.30;21.50;101190.00;;;;5027888;28;20703;-47
2022/05/15 06:24:42;;;;;;;5.93;4.17;;;20.50;50.10;21.50;101181.00;;;;5028054;28;20849;-47
2022/05/15 06:27:10;;;;;;;5.07;3.50;;;20.50;49.80;21.50;101179.00;;;;5038209;28;20174;-49
2022/05/15 06:29:37;;;;;;;4.53;3.63;;;20.50;49.70;21.50;101171.00;;;;5051820;28;20192;-51
2022/05/15 06:32:03;;;;;;;5.97;3.87;;;20.40;49.70;21.40;101188.00;;;;5048618;28;20199;-49
2022/05/15 06:34:28;;;;;;;5.17;3.63;;;20.40;50.10;21.40;101185.00;;;;5040186;28;20182;-47
2022/05/15 06:36:54;;;;;;;6.03;3.63;;;20.50;50.10;21.40;101180.00;;;;5029764;28;20182;-47
2022/05/15 06:39:20;;;;;;;5.93;3.90;;;20.50;50.10;21.40;101179.00;;;;5027508;28;20886;-47
2022/05/15 06:41:50;;;;;;;4.77;3.50;;;20.40;50.50;21.40;101185.00;;;;5027842;28;20195;-47
2022/05/15 06:44:17;;;;;;;5.97;3.80;;;20.40;50.30;21.40;101175.00;;;;5028057;28;20220;-46
2022/05/15 06:46:43;;;;;;;4.17;3.30;;;20.40;50.20;21.40;101169.00;;;;5027644;28;20561;-46
2022/05/15 06:49:09;;;;;;;6.13;3.37;;;20.40;50.10;21.40;101151.00;;;;5027261;28;20342;-47
2022/05/15 06:51:35;;;;;;;3.87;3.40;;;20.40;50.20;21.40;101171.00;;;;5038667;28;20647;-46
2022/05/15 06:54:00;;;;;;;5.43;3.80;;;20.40;50.20;21.40;101163.00;;;;5047630;28;20206;-47
2022/05/15 06:59:10;;;;;;;5.80;3.70;;;20.40;50.50;21.40;101164.00;;;;5047084;28;20682;-48
2022/05/15 07:01:36;;;;;;;3.83;3.20;;;20.40;50.50;21.40;101166.00;;;;5047230;28;20186;-48
2022/05/15 07:04:02;;;;;;;4.43;3.60;;;20.40;50.50;21.40;101165.00;;;;5047238;28;20205;-48
2022/05/15 07:06:27;;;;;;;5.27;3.70;;;20.40;50.50;21.40;101161.00;;;;5045309;28;20166;-47
2022/05/15 07:08:54;;;;;;;6.70;3.50;;;20.40;50.80;21.40;101161.00;;;;5046412;28;20732;-47
2022/05/15 07:11:19;;;;;;;5.20;3.60;;;20.40;50.70;21.40;101167.00;;;;5046737;28;20545;-48
2022/05/15 07:13:45;;;;;;;6.63;4.00;;;20.40;50.80;21.40;101162.00;;;;5047567;28;20188;-48
2022/05/15 07:16:11;;;;;;;7.67;3.77;;;20.50;51.40;21.40;101170.00;;;;5047906;28;20335;-48
2022/05/15 07:18:38;;;;;;;7.83;3.60;;;20.50;52.00;21.40;101159.00;;;;5047906;28;20616;-46
2022/05/15 07:21:04;;;;;;;7.73;4.10;;;20.50;52.20;21.50;101154.00;;;;5045896;28;20788;-47
2022/05/15 07:23:30;;;;;;;12.23;4.20;;;20.50;52.40;21.50;101158.00;;;;5047499;28;20201;-47
2022/05/15 07:25:55;;;;;;;9.93;4.37;;;20.50;52.30;21.50;101159.00;;;;5046189;28;20261;-46
2022/05/15 07:28:21;;;;;;;10.20;4.37;;;20.50;53.40;21.50;101154.00;;;;5046641;28;20270;-47
2022/05/15 07:30:49;;;;;;;8.90;4.30;;;20.50;53.00;21.50;101160.00;;;;5047372;28;20174;-47
2022/05/15 07:33:21;;;;;;;9.73;4.10;;;20.50;52.80;21.50;101159.00;;;;5047169;28;20174;-48
2022/05/15 07:35:47;;;;;;;8.93;4.00;;;20.50;52.80;21.50;101160.00;;;;5047053;28;20245;-47
2022/05/15 07:38:12;;;;;;;5.67;3.30;;;20.60;52.90;21.50;101168.00;;;;5046511;28;20218;-47
2022/05/15 07:40:38;;;;;;;6.87;3.90;;;20.60;52.60;21.50;101161.00;;;;5045870;28;20658;-48
2022/05/15 07:43:06;;;;;;;7.30;3.80;;;20.60;52.30;21.50;101157.00;;;;5045771;28;20174;-45
2022/05/15 07:45:31;;;;;;;5.70;3.70;;;20.50;52.10;21.50;101164.00;;;;5046899;28;20273;-46
2022/05/15 07:47:57;;;;;;;6.57;3.80;;;20.50;51.80;21.50;101164.00;;;;5046652;28;20244;-46
2022/05/15 07:50:23;;;;;;;6.53;4.00;;;20.50;51.60;21.50;101162.00;;;;5053143;28;20163;-46
2022/05/15 07:52:49;;;;;;;7.37;3.50;;;20.50;52.10;21.50;101158.00;;;;5045853;28;20182;-48
2022/05/15 07:55:14;;;;;;;7.10;3.63;;;20.60;52.10;21.50;101164.00;;;;5032173;28;20167;-47
2022/05/15 07:57:40;;;;;;;6.30;4.00;;;20.60;52.30;21.50;101168.00;;;;5025902;28;20762;-46
2022/05/15 08:00:09;;;;;;;7.23;3.90;;;20.60;51.20;21.50;101087.00;;;;4913380;28;20179;-47
2022/05/15 08:02:35;;;;;;;7.50;4.40;;;20.50;50.60;21.50;101153.00;;;;5020903;28;20851;-46
2022/05/15 08:08:01;;;;;;;13.63;4.37;;;20.60;51.40;21.50;101145.00;;;;5015161;28;20581;-47
2022/05/15 08:10:33;;;;;;;12.83;4.30;;;20.50;51.40;21.50;101145.00;;;;5026390;28;20176;-47
2022/05/15 08:12:59;;;;;;;10.10;4.50;;;20.50;51.70;21.50;101142.00;;;;5024680;28;20177;-48
2022/05/15 08:15:25;;;;;;;8.90;4.33;;;20.60;51.60;21.50;101151.00;;;;5025798;28;20178;-49
2022/05/15 08:17:50;;;;;;;10.23;4.10;;;20.60;51.80;21.60;101148.00;;;;5025269;28;20538;-46
2022/05/15 08:25:46;;;;;;;8.67;4.00;;;20.70;52.60;21.60;101144.00;;;;5025963;28;20249;-48
2022/05/15 08:28:12;;;;;;;5.93;3.60;;;20.70;51.90;21.60;101141.00;;;;5025514;28;20184;-47
2022/05/15 08:30:38;;;;;;;10.10;3.80;;;20.70;51.80;21.60;101135.00;;;;5025826;28;20261;-47
2022/05/15 08:33:04;;;;;;;8.67;3.90;;;20.70;52.40;21.60;101139.00;;;;5028992;28;20194;-48
2022/05/15 08:35:30;;;;;;;6.63;3.70;;;20.70;52.40;21.70;101144.00;;;;5031490;28;20251;-48
2022/05/15 08:37:57;;;;;;;8.20;3.97;;;20.80;51.80;21.70;101137.00;;;;5030668;28;20184;-47
2022/05/15 08:40:27;;;;;;;7.37;3.80;;;20.80;51.60;21.70;101108.00;;;;5024637;28;20179;-47
2022/05/15 08:42:56;;;;;;;8.63;4.00;;;20.80;51.70;21.70;101131.00;;;;5024495;28;20222;-47
2022/05/15 08:45:24;;;;;;;7.60;3.80;;;20.80;50.90;21.70;101135.00;;;;5025477;28;20206;-47
2022/05/15 08:48:01;;;;;;;9.47;4.17;;;20.80;50.60;21.70;101139.00;;;;5025031;28;20670;-46
2022/05/15 08:50:30;;;;;;;7.40;3.77;;;20.80;50.90;21.70;101126.00;;;;5024060;28;20169;-47
2022/05/15 08:53:07;;;;;;;7.90;3.97;;;20.80;51.20;21.80;101119.00;;;;5024455;28;20540;-48
2022/05/15 08:55:45;;;;;;;8.47;3.63;;;20.90;51.00;21.80;101128.00;;;;5024077;28;20171;-49
2022/05/15 08:58:35;;;;;;;8.20;3.83;;;20.90;49.90;21.80;101108.00;;;;5023811;28;20222;-48
2022/05/15 09:01:01;;;;;;;5.73;3.40;;;20.80;50.00;21.80;101118.00;;;;4839508;28;20311;-49
2022/05/15 09:03:33;;;;;;;8.33;3.63;;;20.90;50.90;21.80;101116.00;;;;5024222;28;20352;-48
2022/05/15 09:06:04;;;;;;;6.47;3.47;;;20.90;49.90;21.80;101110.00;;;;5028553;28;20412;-46
2022/05/15 09:09:13;;;;;;;4.93;3.30;;;20.90;50.00;21.80;101109.00;;;;5024861;28;20238;-46
2022/05/15 09:12:03;;;;;;;4.47;3.60;;;21.00;50.00;21.90;101111.00;;;;5035957;28;20226;-48
2022/05/15 09:14:57;;;;;;;7.50;3.73;;;21.00;51.00;21.90;101112.00;;;;5041085;28;20218;-48
2022/05/15 09:17:51;;;;;;;7.03;3.50;;;21.10;50.30;21.90;101108.00;;;;5024331;28;20219;-47
2022/05/15 09:20:47;;;;;;;6.80;3.57;;;21.10;50.50;21.90;101114.00;;;;5024720;28;20187;-52
2022/05/15 09:23:41;;;;;;;4.50;3.40;;;21.10;51.10;21.90;101114.00;;;;5025217;28;20205;-50
2022/05/15 09:26:22;;;;;;;5.23;3.20;;;21.10;51.40;21.90;101113.00;;;;5025083;28;20681;-51
2022/05/15 09:28:55;;;;;;;5.60;3.40;;;21.10;51.90;22.00;101112.00;;;;5026614;28;20187;-51
2022/05/15 09:31:40;;;;;;;5.40;3.30;;;21.10;52.10;22.00;101122.00;;;;5029040;28;20164;-51
2022/05/15 09:34:10;;;;;;;6.27;3.50;;;21.10;52.30;22.00;101117.00;;;;5030112;28;20170;-51
2022/05/15 09:36:36;;;;;;;6.10;3.33;;;21.20;52.60;22.00;101121.00;;;;5030013;28;20165;-51
2022/05/15 09:39:20;;;;;;;5.13;3.37;;;21.20;52.90;22.10;101109.00;;;;5026470;28;20199;-50
2022/05/15 09:44:44;;;;;;;3.47;3.03;;;21.20;53.20;22.10;101106.00;;;;5028878;28;20188;-52
2022/05/15 09:47:28;;;;;;;5.23;3.27;;;21.20;53.10;22.10;101091.00;;;;5027906;28;20571;-51
2022/05/15 09:49:54;;;;;;;5.93;3.37;;;21.30;53.30;22.10;101105.00;;;;5027215;28;20180;-51
2022/05/15 09:52:38;;;;;;;5.23;3.20;;;21.30;53.30;22.20;101100.00;;;;5027176;28;20178;-51
2022/05/15 09:55:24;;;;;;;3.57;3.00;;;21.30;53.40;22.20;101086.00;;;;5027208;28;20231;-52
2022/05/15 09:57:57;;;;;;;4.83;3.27;;;21.40;53.50;22.20;101090.00;;;;5041787;28;20219;-52
2022/05/15 10:00:24;;;;;;;4.20;2.97;;;21.40;53.80;22.20;101083.00;;;;4874201;28;20181;-53
2022/05/15 10:02:52;;;;;;;6.03;3.00;;;21.40;54.00;22.20;101090.00;;;;5037022;28;20221;-51
2022/05/15 10:05:28;;;;;;;3.80;2.73;;;21.50;54.20;22.30;101076.00;;;;5027986;28;20176;-51
2022/05/15 10:08:10;;;;;;;3.53;2.90;;;21.40;54.20;22.30;101082.00;;;;5027380;28;20193;-50
2022/05/15 10:10:58;;;;;;;3.03;2.50;;;21.50;54.50;22.30;101089.00;;;;5026796;28;20167;-51
2022/05/15 10:13:35;;;;;;;4.00;2.93;;;21.50;54.40;22.30;101071.00;;;;5039486;28;20199;-51
2022/05/15 10:16:23;;;;;;;4.10;3.20;;;21.50;54.40;22.40;101075.00;;;;5030252;28;20155;-50
2022/05/15 10:19:09;;;;;;;4.83;3.03;;;21.50;54.60;22.40;101061.00;;;;5026176;28;20185;-51
2022/05/15 10:21:42;;;;;;;4.70;2.90;;;21.50;54.60;22.40;101080.00;;;;5026156;28;20213;-52
2022/05/15 10:24:15;;;;;;;4.40;2.97;;;21.60;54.30;22.40;101066.00;;;;5026546;28;20653;-51
2022/05/15 10:27:04;;;;;;;3.53;2.80;;;21.60;54.30;22.50;101073.00;;;;5027656;28;20570;-49
2022/05/15 10:29:45;;;;;;;4.43;3.00;;;21.70;54.60;22.50;101080.00;;;;5026166;28;20612;-51
2022/05/15 10:32:44;;;;;;;5.03;3.10;;;21.70;54.70;22.50;101073.00;;;;5026479;28;20173;-50
2022/05/15 10:35:14;;;;;;;6.03;2.60;;;21.70;54.60;22.50;101047.00;;;;5027289;28;20243;-51
2022/05/15 10:38:04;;;;;;;3.73;2.83;;;21.70;54.80;22.60;101076.00;;;;5027492;28;20662;-50
2022/05/15 10:40:43;;;;;;;4.97;3.00;;;21.80;54.80;22.60;101071.00;;;;5008315;28;20178;-51
2022/05/15 10:44:21;;;;;;;5.40;3.00;;;21.80;54.90;22.60;101064.00;;;;5009104;28;20701;-51
2022/05/15 10:47:00;;;;;;;4.70;2.70;;;21.80;54.80;22.60;101062.00;;;;5004177;28;20182;-52
2022/05/15 10:49:31;;;;;;;3.20;2.73;;;21.90;55.10;22.70;101058.00;;;;4988415;28;20225;-51
2022/05/15 10:52:28;;;;;;;2.60;2.40;;;21.90;55.10;22.70;101056.00;;;;5031358;28;20267;-51
2022/05/15 10:58:33;;;;;;;3.30;2.53;;;21.90;55.10;22.80;101047.00;;;;5038241;28;20209;-51
2022/05/15 11:01:28;;;;;;;3.23;2.53;;;22.00;55.20;22.80;101041.00;;;;5046410;28;20250;-53
2022/05/15 11:04:45;;;;;;;3.17;2.70;;;22.00;55.10;22.80;101032.00;;;;5046077;28;20235;-51
2022/05/15 11:07:35;;;;;;;3.73;3.00;;;22.00;54.90;22.80;101038.00;;;;5046676;28;20237;-52
2022/05/15 11:10:00;;;;;;;3.70;2.70;;;22.10;54.90;22.90;101030.00;;;;5045905;28;20186;-50
2022/05/15 11:12:50;;;;;;;3.40;2.80;;;22.10;55.00;22.90;101032.00;;;;5047087;28;20209;-51
2022/05/15 11:15:37;;;;;;;3.40;2.87;;;22.10;54.90;22.90;101024.00;;;;5045406;28;20239;-51
2022/05/15 11:18:28;;;;;;;3.40;2.60;;;22.10;55.00;23.00;101016.00;;;;5046633;28;20276;-51